Time;durP1;ratioP1;P1;durP2;ratioP2;P2;SDS_P1;SDS_P2;PMS_P1;PMS_P2;Temp;Humidity;BMP_temperature;BMP_pressure;BME280_temperature;BME280_humidity;BME280_pressure;Samples;Min_cycle;Max_cycle;Signal;HPM_P1;HPM_P2
2022/06/20 00:01:09;;;;;;;;;;;23.70;99.90;;;;;;5032108;28;19974;-67
2022/06/20 00:03:38;;;;;;;;;;;23.50;99.90;;;;;;5032404;28;20352;-67
2022/06/20 00:06:05;;;;;;;;;;;23.50;99.90;;;;;;5032092;28;19925;-67
2022/06/20 00:08:32;;;;;;;;;;;23.40;99.90;;;;;;5032145;28;19925;-67
2022/06/20 00:11:00;;;;;;;;;;;23.40;99.90;;;;;;5032070;28;19925;-67
2022/06/20 00:13:28;;;;;;;;;;;23.40;99.90;;;;;;5031881;28;19925;-67
2022/06/20 00:15:56;;;;;;;;;;;23.30;99.90;;;;;;5031727;28;19929;-67
2022/06/20 00:18:23;;;;;;;;;;;23.40;99.90;;;;;;5032035;28;20024;-67
2022/06/20 00:20:50;;;;;;;;;;;23.20;99.90;;;;;;5032004;28;20368;-67
2022/06/20 00:23:17;;;;;;;;;;;23.20;99.90;;;;;;5031831;28;19925;-67
2022/06/20 00:25:44;;;;;;;;;;;23.20;99.90;;;;;;5031648;28;20004;-67
2022/06/20 00:28:12;;;;;;;;;;;23.20;99.90;;;;;;5031820;28;20340;-67
2022/06/20 00:30:39;;;;;;;;;;;23.10;99.90;;;;;;5032008;28;19976;-67
2022/06/20 00:33:06;;;;;;;;;;;23.10;99.90;;;;;;5031872;28;19975;-67
2022/06/20 00:35:34;;;;;;;;;;;22.90;99.90;;;;;;5031983;28;20336;-67
2022/06/20 00:38:02;;;;;;;;;;;23.00;99.90;;;;;;5031819;28;19929;-67
2022/06/20 00:40:30;;;;;;;;;;;22.90;99.90;;;;;;5031910;28;20382;-67
2022/06/20 00:42:58;;;;;;;;;;;22.80;99.90;;;;;;5031751;28;19932;-67
2022/06/20 00:45:28;;;;;;;;;;;22.80;99.90;;;;;;5031464;28;20305;-67
2022/06/20 00:48:05;;;;;;;;;;;22.80;99.90;;;;;;5031651;28;20385;-67
2022/06/20 00:50:33;;;;;;;;;;;22.80;99.90;;;;;;5031859;28;19925;-67
2022/06/20 00:53:03;;;;;;;;;;;22.60;99.90;;;;;;5031640;28;19925;-66
2022/06/20 00:55:31;;;;;;;;;;;22.50;99.90;;;;;;5031751;28;19932;-67
2022/06/20 00:58:00;;;;;;;;;;;22.60;99.90;;;;;;5035103;28;19932;-67
2022/06/20 01:00:31;;;;;;;;;;;22.60;99.90;;;;;;5035645;28;19992;-67
2022/06/20 01:03:02;;;;;;;;;;;22.50;99.90;;;;;;5035461;28;19924;-67
2022/06/20 01:05:32;;;;;;;;;;;22.50;99.90;;;;;;5035272;28;19932;-67
2022/06/20 01:08:01;;;;;;;;;;;22.60;99.90;;;;;;5035693;28;19925;-67
2022/06/20 01:10:30;;;;;;;;;;;22.60;99.90;;;;;;5035533;28;19929;-67
2022/06/20 01:12:59;;;;;;;;;;;22.50;99.90;;;;;;5035221;28;19925;-67
2022/06/20 01:15:27;;;;;;;;;;;22.50;99.90;;;;;;5035036;28;20452;-67
2022/06/20 01:17:56;;;;;;;;;;;22.70;99.90;;;;;;5035194;28;19925;-67
2022/06/20 01:20:25;;;;;;;;;;;22.70;99.90;;;;;;5035617;28;19929;-67
2022/06/20 01:22:57;;;;;;;;;;;22.60;99.90;;;;;;5035094;28;19932;-67
2022/06/20 01:25:32;;;;;;;;;;;22.50;99.90;;;;;;5034919;28;19925;-67
2022/06/20 01:28:00;;;;;;;;;;;22.50;99.90;;;;;;5035300;28;20359;-67
2022/06/20 01:30:31;;;;;;;;;;;22.50;99.90;;;;;;5034994;28;19925;-67
2022/06/20 01:32:58;;;;;;;;;;;22.40;99.90;;;;;;5034957;28;19933;-67
2022/06/20 01:38:08;;;;;;;;;;;22.60;99.90;;;;;;5001728;28;19929;-67
2022/06/20 01:40:36;;;;;;;;;;;22.60;99.90;;;;;;5034785;28;20367;-67
2022/06/20 01:43:03;;;;;;;;;;;22.70;99.90;;;;;;5034568;28;19979;-67
2022/06/20 01:48:18;;;;;;;;;;;22.70;99.90;;;;;;5034768;28;19928;-67
2022/06/20 01:50:46;;;;;;;;;;;22.60;99.90;;;;;;5034748;28;20411;-67
2022/06/20 01:53:14;;;;;;;;;;;22.50;99.90;;;;;;5034614;28;19932;-67
2022/06/20 01:55:42;;;;;;;;;;;22.30;99.90;;;;;;5034259;28;19925;-67
2022/06/20 01:58:13;;;;;;;;;;;22.40;99.90;;;;;;5034560;28;19929;-67
2022/06/20 02:00:39;;;;;;;;;;;22.40;99.90;;;;;;5034509;28;19925;-67
2022/06/20 02:03:08;;;;;;;;;;;22.60;99.90;;;;;;5034449;28;19932;-67
2022/06/20 02:05:35;;;;;;;;;;;22.50;99.90;;;;;;5034158;28;20024;-67
2022/06/20 02:08:04;;;;;;;;;;;22.40;99.90;;;;;;5034015;28;19925;-67
2022/06/20 02:10:35;;;;;;;;;;;22.60;99.90;;;;;;5034379;28;19932;-67
2022/06/20 02:13:03;;;;;;;;;;;22.60;99.90;;;;;;5034703;28;19925;-67
2022/06/20 02:15:32;;;;;;;;;;;22.70;99.90;;;;;;5033965;28;19925;-68
2022/06/20 02:18:01;;;;;;;;;;;22.60;99.90;;;;;;5034219;28;19979;-69
2022/06/20 02:20:30;;;;;;;;;;;22.70;99.90;;;;;;5034097;28;19925;-69
2022/06/20 02:22:57;;;;;;;;;;;22.30;99.90;;;;;;5034052;28;19925;-69
2022/06/20 02:25:25;;;;;;;;;;;22.40;99.90;;;;;;5033860;28;19925;-69
2022/06/20 02:27:55;;;;;;;;;;;22.50;99.90;;;;;;5034010;28;19925;-68
2022/06/20 02:30:22;;;;;;;;;;;22.60;99.90;;;;;;5033937;28;19925;-69
2022/06/20 02:32:54;;;;;;;;;;;22.40;99.90;;;;;;5034005;28;20372;-68
2022/06/20 02:35:21;;;;;;;;;;;22.30;99.90;;;;;;5033453;28;19979;-69
2022/06/20 02:37:48;;;;;;;;;;;22.30;99.90;;;;;;5033685;28;19979;-69
2022/06/20 02:40:16;;;;;;;;;;;22.20;99.90;;;;;;5033853;28;19982;-68
2022/06/20 02:42:46;;;;;;;;;;;22.10;99.90;;;;;;5033665;28;19925;-69
2022/06/20 02:45:13;;;;;;;;;;;22.20;99.90;;;;;;5033395;28;19979;-68
2022/06/20 02:47:41;;;;;;;;;;;22.10;99.90;;;;;;5033340;28;19987;-68
2022/06/20 02:50:11;;;;;;;;;;;21.80;99.90;;;;;;5033550;28;19925;-69
2022/06/20 02:52:41;;;;;;;;;;;22.00;99.90;;;;;;5033598;28;19929;-68
2022/06/20 02:55:08;;;;;;;;;;;22.10;99.90;;;;;;5033141;28;19925;-69
2022/06/20 02:57:36;;;;;;;;;;;22.00;99.90;;;;;;5033403;28;19929;-67
2022/06/20 03:00:04;;;;;;;;;;;22.00;99.90;;;;;;5033269;28;20381;-67
2022/06/20 03:02:35;;;;;;;;;;;21.90;99.90;;;;;;5033195;28;19987;-67
2022/06/20 03:05:03;;;;;;;;;;;22.00;99.90;;;;;;5033030;28;19932;-67
2022/06/20 03:07:33;;;;;;;;;;;22.00;99.90;;;;;;5033093;28;20040;-68
2022/06/20 03:10:03;;;;;;;;;;;21.90;99.90;;;;;;5033098;28;20381;-67
2022/06/20 03:12:31;;;;;;;;;;;22.00;99.90;;;;;;5033061;28;19995;-67
2022/06/20 03:15:00;;;;;;;;;;;22.10;99.90;;;;;;5033055;28;19933;-67
2022/06/20 03:17:27;;;;;;;;;;;22.00;99.90;;;;;;5033072;28;19925;-67
2022/06/20 03:19:56;;;;;;;;;;;22.00;99.90;;;;;;5032240;28;20279;-68
2022/06/20 03:22:24;;;;;;;;;;;21.80;99.90;;;;;;5032825;28;19925;-68
2022/06/20 03:24:52;;;;;;;;;;;21.80;99.90;;;;;;5032714;28;19932;-67
2022/06/20 03:27:22;;;;;;;;;;;21.70;99.90;;;;;;5032639;28;19925;-67
2022/06/20 03:29:54;;;;;;;;;;;21.70;99.90;;;;;;5032854;28;19932;-67
2022/06/20 03:32:21;;;;;;;;;;;21.80;99.90;;;;;;5032614;28;19925;-67
2022/06/20 03:34:48;;;;;;;;;;;21.90;99.90;;;;;;5032806;28;19925;-67
2022/06/20 03:37:15;;;;;;;;;;;21.80;99.90;;;;;;5032705;28;19991;-68
2022/06/20 03:39:43;;;;;;;;;;;21.60;99.90;;;;;;5032480;28;19948;-67
2022/06/20 03:42:11;;;;;;;;;;;21.50;99.90;;;;;;5032729;28;19933;-67
2022/06/20 03:44:40;;;;;;;;;;;21.50;99.90;;;;;;5032863;28;19929;-67
2022/06/20 03:47:11;;;;;;;;;;;21.30;99.90;;;;;;5032223;28;19925;-68
2022/06/20 03:49:41;;;;;;;;;;;21.30;99.90;;;;;;5032554;28;19925;-67
2022/06/20 03:52:11;;;;;;;;;;;21.30;99.90;;;;;;5032591;28;19929;-68
2022/06/20 03:54:41;;;;;;;;;;;21.20;99.90;;;;;;5032396;28;19932;-67
2022/06/20 03:57:10;;;;;;;;;;;21.20;99.90;;;;;;5032161;28;20337;-68
2022/06/20 03:59:40;;;;;;;;;;;21.40;99.90;;;;;;5032091;28;19932;-68
2022/06/20 04:02:10;;;;;;;;;;;21.30;99.90;;;;;;5032181;28;19925;-68
2022/06/20 04:04:40;;;;;;;;;;;21.30;99.90;;;;;;5032165;28;19925;-68
2022/06/20 04:07:08;;;;;;;;;;;21.30;99.90;;;;;;5031957;28;19968;-69
2022/06/20 04:12:26;;;;;;;;;;;21.00;99.90;;;;;;5032391;28;19929;-69
2022/06/20 04:14:56;;;;;;;;;;;21.10;99.90;;;;;;5031917;28;19979;-69
2022/06/20 04:20:16;;;;;;;;;;;21.10;99.90;;;;;;5032249;28;19937;-71
2022/06/20 04:22:44;;;;;;;;;;;21.10;99.90;;;;;;5031947;28;19929;-71
2022/06/20 04:25:17;;;;;;;;;;;20.90;99.90;;;;;;5031809;28;19925;-71
2022/06/20 04:27:46;;;;;;;;;;;21.00;99.90;;;;;;5032035;28;19968;-71
2022/06/20 04:30:18;;;;;;;;;;;21.10;99.90;;;;;;5031869;28;19979;-70
2022/06/20 04:32:49;;;;;;;;;;;21.20;99.90;;;;;;5031832;28;19999;-70
2022/06/20 04:35:18;;;;;;;;;;;21.40;99.90;;;;;;5031655;28;19990;-70
2022/06/20 04:37:48;;;;;;;;;;;21.40;99.90;;;;;;5031864;28;19925;-70
2022/06/20 04:40:17;;;;;;;;;;;21.40;99.90;;;;;;5031624;28;20348;-70
2022/06/20 04:42:48;;;;;;;;;;;21.50;99.90;;;;;;5031705;28;19932;-70
2022/06/20 04:45:18;;;;;;;;;;;21.50;99.90;;;;;;5031721;28;19925;-70
2022/06/20 04:47:48;;;;;;;;;;;21.50;99.90;;;;;;5031802;28;19933;-70
2022/06/20 04:50:16;;;;;;;;;;;21.50;99.90;;;;;;5031397;28;19925;-70
2022/06/20 04:52:43;;;;;;;;;;;21.50;99.90;;;;;;5031953;28;20444;-70
2022/06/20 04:55:14;;;;;;;;;;;21.50;99.90;;;;;;5031939;28;19929;-70
2022/06/20 04:57:40;;;;;;;;;;;21.60;99.90;;;;;;5032011;28;20451;-70
2022/06/20 05:00:09;;;;;;;;;;;21.70;99.90;;;;;;5031759;28;19926;-70
2022/06/20 05:02:37;;;;;;;;;;;21.80;99.90;;;;;;5031530;28;20156;-70
2022/06/20 05:05:05;;;;;;;;;;;21.80;99.90;;;;;;5031276;28;19926;-70
2022/06/20 05:07:34;;;;;;;;;;;21.80;99.90;;;;;;5031524;28;19925;-70
2022/06/20 05:10:05;;;;;;;;;;;21.70;99.90;;;;;;5031437;28;19947;-70
2022/06/20 05:12:38;;;;;;;;;;;21.60;99.90;;;;;;5032029;28;19929;-70
2022/06/20 05:15:07;;;;;;;;;;;21.70;99.90;;;;;;5031320;28;19932;-70
2022/06/20 05:17:36;;;;;;;;;;;21.80;99.90;;;;;;5031482;28;19925;-70
2022/06/20 05:20:08;;;;;;;;;;;21.80;99.90;;;;;;5031293;28;19940;-70
2022/06/20 05:22:38;;;;;;;;;;;21.90;99.90;;;;;;5031435;28;20374;-70
2022/06/20 05:25:07;;;;;;;;;;;22.00;99.90;;;;;;5031279;28;19979;-70
2022/06/20 05:27:38;;;;;;;;;;;21.90;99.90;;;;;;5031554;28;19987;-70
2022/06/20 05:30:06;;;;;;;;;;;21.80;99.90;;;;;;5031670;28;20024;-70
2022/06/20 05:32:36;;;;;;;;;;;21.70;99.90;;;;;;5031649;28;19925;-70
2022/06/20 05:35:06;;;;;;;;;;;21.80;99.90;;;;;;5030964;28;19931;-70
2022/06/20 05:37:36;;;;;;;;;;;21.90;99.90;;;;;;5031375;28;20443;-70
2022/06/20 05:40:07;;;;;;;;;;;21.90;99.90;;;;;;5031181;28;19972;-70
2022/06/20 05:42:33;;;;;;;;;;;22.00;99.90;;;;;;5032699;28;19932;-71
2022/06/20 05:45:00;;;;;;;;;;;22.00;99.90;;;;;;5034720;28;19948;-70
2022/06/20 05:47:29;;;;;;;;;;;21.90;99.90;;;;;;5034562;28;19976;-70
2022/06/20 05:49:58;;;;;;;;;;;21.80;99.90;;;;;;5034605;28;19983;-70
2022/06/20 05:52:30;;;;;;;;;;;21.70;99.90;;;;;;5034590;28;19925;-70
2022/06/20 05:54:58;;;;;;;;;;;21.70;99.90;;;;;;5034714;28;19925;-70
2022/06/20 05:57:27;;;;;;;;;;;21.60;99.90;;;;;;5034620;28;20393;-70
2022/06/20 05:59:56;;;;;;;;;;;21.60;99.90;;;;;;5034497;28;19925;-70
2022/06/20 06:02:25;;;;;;;;;;;21.60;99.90;;;;;;5034266;28;19929;-70
2022/06/20 06:04:55;;;;;;;;;;;21.60;99.90;;;;;;5034301;28;19940;-70
2022/06/20 06:07:26;;;;;;;;;;;21.30;99.90;;;;;;5034354;28;19925;-70
2022/06/20 06:09:55;;;;;;;;;;;21.50;99.90;;;;;;5034609;28;19967;-70
2022/06/20 06:12:26;;;;;;;;;;;21.40;99.90;;;;;;5034524;28;19975;-70
2022/06/20 06:14:55;;;;;;;;;;;21.40;99.90;;;;;;5034220;28;20352;-70
2022/06/20 06:17:26;;;;;;;;;;;21.50;99.90;;;;;;5034245;28;19925;-70
2022/06/20 06:19:54;;;;;;;;;;;21.60;99.90;;;;;;5034312;28;19925;-70
2022/06/20 06:22:22;;;;;;;;;;;21.60;99.90;;;;;;5034081;28;19925;-70
2022/06/20 06:24:52;;;;;;;;;;;21.50;99.90;;;;;;5034087;28;19929;-70
2022/06/20 06:27:21;;;;;;;;;;;21.30;99.90;;;;;;5033804;28;19925;-70
2022/06/20 06:29:50;;;;;;;;;;;21.60;99.90;;;;;;5033999;28;19983;-70
2022/06/20 06:32:19;;;;;;;;;;;21.60;99.90;;;;;;5033886;28;19948;-69
2022/06/20 06:34:48;;;;;;;;;;;21.30;99.90;;;;;;5033526;28;19925;-69
2022/06/20 06:37:19;;;;;;;;;;;21.50;99.90;;;;;;5033875;28;19925;-69
2022/06/20 06:39:50;;;;;;;;;;;21.60;99.90;;;;;;5033669;28;20282;-69
2022/06/20 06:42:18;;;;;;;;;;;21.40;99.90;;;;;;5033642;28;20428;-69
2022/06/20 06:44:48;;;;;;;;;;;21.50;99.90;;;;;;5033449;28;19959;-69
2022/06/20 06:47:17;;;;;;;;;;;21.60;99.90;;;;;;5033449;28;19929;-69
2022/06/20 06:49:45;;;;;;;;;;;21.70;99.90;;;;;;5033626;28;20463;-69
2022/06/20 06:52:14;;;;;;;;;;;21.50;99.90;;;;;;5033308;28;19925;-69
2022/06/20 06:54:48;;;;;;;;;;;21.60;99.90;;;;;;5032529;28;19948;-69
2022/06/20 06:57:18;;;;;;;;;;;21.60;99.90;;;;;;5033536;28;19979;-69
2022/06/20 06:59:48;;;;;;;;;;;21.30;99.90;;;;;;5033354;28;19925;-69
2022/06/20 07:02:17;;;;;;;;;;;21.30;99.90;;;;;;5033200;28;19925;-69
2022/06/20 07:04:47;;;;;;;;;;;21.40;99.90;;;;;;5033062;28;19964;-69
2022/06/20 07:07:16;;;;;;;;;;;21.40;99.90;;;;;;5033604;28;19986;-70
2022/06/20 07:09:47;;;;;;;;;;;21.30;99.90;;;;;;5033328;28;19975;-70
2022/06/20 07:12:16;;;;;;;;;;;21.30;99.90;;;;;;5033558;28;19932;-70
2022/06/20 07:14:45;;;;;;;;;;;21.20;99.90;;;;;;5032928;28;20418;-70
2022/06/20 07:17:15;;;;;;;;;;;21.70;99.90;;;;;;5033507;28;20288;-70
2022/06/20 07:19:43;;;;;;;;;;;21.80;99.90;;;;;;5033269;28;19925;-70
2022/06/20 07:22:11;;;;;;;;;;;21.90;99.90;;;;;;5032871;28;20287;-70
2022/06/20 07:24:37;;;;;;;;;;;22.00;99.90;;;;;;5032880;28;20397;-70
2022/06/20 07:27:07;;;;;;;;;;;21.90;99.90;;;;;;5032722;28;20290;-70
2022/06/20 07:29:35;;;;;;;;;;;22.20;99.90;;;;;;5033085;28;19925;-69
2022/06/20 07:32:06;;;;;;;;;;;22.30;99.90;;;;;;5032553;28;19925;-69
2022/06/20 07:34:36;;;;;;;;;;;22.40;99.90;;;;;;5032733;28;19932;-70
2022/06/20 07:37:06;;;;;;;;;;;22.00;99.90;;;;;;5032471;28;19925;-70
2022/06/20 07:39:35;;;;;;;;;;;21.80;99.90;;;;;;5032658;28;19925;-70
2022/06/20 07:42:03;;;;;;;;;;;22.10;99.90;;;;;;5032599;28;19932;-69
2022/06/20 07:44:32;;;;;;;;;;;22.60;99.90;;;;;;5032417;28;19929;-69
2022/06/20 07:47:01;;;;;;;;;;;23.10;99.90;;;;;;5032088;28;20448;-69
2022/06/20 07:49:30;;;;;;;;;;;23.40;99.90;;;;;;5032747;28;19925;-69
2022/06/20 07:52:01;;;;;;;;;;;23.50;99.90;;;;;;5032310;28;20215;-70
2022/06/20 07:54:30;;;;;;;;;;;23.50;99.90;;;;;;5032510;28;19925;-69
2022/06/20 07:57:00;;;;;;;;;;;23.90;99.90;;;;;;5031997;28;19925;-69
2022/06/20 07:59:30;;;;;;;;;;;24.00;99.90;;;;;;5032403;28;19929;-68
2022/06/20 08:02:00;;;;;;;;;;;24.10;99.90;;;;;;5032299;28;19924;-68
2022/06/20 08:04:30;;;;;;;;;;;24.30;99.90;;;;;;5032457;28;20285;-68
2022/06/20 08:07:01;;;;;;;;;;;24.30;99.90;;;;;;5031629;28;19932;-68
2022/06/20 08:09:32;;;;;;;;;;;24.10;99.90;;;;;;5032174;28;19929;-69
2022/06/20 08:12:02;;;;;;;;;;;24.30;99.70;;;;;;5032050;28;19926;-69
2022/06/20 08:14:31;;;;;;;;;;;24.50;99.30;;;;;;5032087;28;19929;-68
2022/06/20 08:16:59;;;;;;;;;;;24.50;99.90;;;;;;5031765;28;19932;-68
2022/06/20 08:19:26;;;;;;;;;;;24.50;99.70;;;;;;5032054;28;19929;-69
2022/06/20 08:21:57;;;;;;;;;;;24.80;99.20;;;;;;5031840;28;19933;-68
2022/06/20 08:24:27;;;;;;;;;;;24.20;99.90;;;;;;5031873;28;19932;-68
2022/06/20 08:26:55;;;;;;;;;;;23.30;99.90;;;;;;5031907;28;19925;-68
2022/06/20 08:29:25;;;;;;;;;;;23.40;99.90;;;;;;5031957;28;20601;-68
2022/06/20 08:31:53;;;;;;;;;;;23.80;99.90;;;;;;5031785;28;19948;-68
2022/06/20 08:34:22;;;;;;;;;;;24.00;99.90;;;;;;5031652;28;19925;-68
2022/06/20 08:36:51;;;;;;;;;;;24.50;99.30;;;;;;5031450;28;19933;-68
2022/06/20 08:39:20;;;;;;;;;;;25.00;98.80;;;;;;5031898;28;19933;-68
2022/06/20 08:42:09;;;;;;;;;;;24.60;99.40;;;;;;5031601;28;19971;-68
2022/06/20 08:44:46;;;;;;;;;;;24.80;99.60;;;;;;5031623;28;19925;-68
2022/06/20 08:47:43;;;;;;;;;;;24.80;99.20;;;;;;5031833;28;19979;-68
2022/06/20 08:50:22;;;;;;;;;;;25.70;98.60;;;;;;5031882;28;19929;-68
2022/06/20 08:53:04;;;;;;;;;;;26.40;97.60;;;;;;5031814;28;20352;-69
2022/06/20 08:55:45;;;;;;;;;;;26.90;97.20;;;;;;5031378;28;19928;-68
2022/06/20 08:58:17;;;;;;;;;;;27.00;96.70;;;;;;5031585;28;19925;-68
2022/06/20 09:00:47;;;;;;;;;;;26.90;96.50;;;;;;5031533;28;20378;-68
2022/06/20 09:03:28;;;;;;;;;;;26.70;97.00;;;;;;5031475;28;19956;-68
2022/06/20 09:06:01;;;;;;;;;;;26.50;97.30;;;;;;5031330;28;19961;-68
2022/06/20 09:08:44;;;;;;;;;;;26.40;97.30;;;;;;5031595;28;20451;-68
2022/06/20 09:11:23;;;;;;;;;;;26.00;97.80;;;;;;5031579;28;19933;-68
2022/06/20 09:14:23;;;;;;;;;;;25.80;98.00;;;;;;5031246;28;19933;-68
2022/06/20 09:16:56;;;;;;;;;;;25.70;98.40;;;;;;4970323;28;20370;-68
2022/06/20 09:19:30;;;;;;;;;;;26.30;97.70;;;;;;4974138;28;19926;-68
2022/06/20 09:22:05;;;;;;;;;;;26.40;97.30;;;;;;5006282;28;19975;-69
2022/06/20 09:24:35;;;;;;;;;;;26.40;97.10;;;;;;5035185;28;19932;-68
2022/06/20 09:27:08;;;;;;;;;;;26.80;97.10;;;;;;5034981;28;19925;-68
2022/06/20 09:29:39;;;;;;;;;;;27.00;96.60;;;;;;5035226;28;19925;-68
2022/06/20 09:32:20;;;;;;;;;;;27.00;96.80;;;;;;5035279;28;19987;-68
2022/06/20 09:35:02;;;;;;;;;;;28.20;95.30;;;;;;5034702;28;19996;-68
2022/06/20 09:37:58;;;;;;;;;;;28.80;95.00;;;;;;5035068;28;19925;-69
2022/06/20 09:40:30;;;;;;;;;;;29.60;93.70;;;;;;4973910;28;20445;-69
2022/06/20 09:43:00;;;;;;;;;;;30.70;92.50;;;;;;5021950;28;19975;-68
2022/06/20 09:45:33;;;;;;;;;;;31.20;91.70;;;;;;5034610;28;19929;-68
2022/06/20 09:48:07;;;;;;;;;;;31.30;91.20;;;;;;5034761;28;19936;-68
2022/06/20 09:50:45;;;;;;;;;;;31.80;90.70;;;;;;5034768;28;19932;-68
2022/06/20 09:53:31;;;;;;;;;;;31.40;90.70;;;;;;5034707;28;19929;-68
2022/06/20 09:56:00;;;;;;;;;;;30.40;91.50;;;;;;5034689;28;19932;-68
2022/06/20 09:58:30;;;;;;;;;;;30.90;91.60;;;;;;5034655;28;19933;-68
2022/06/20 10:00:59;;;;;;;;;;;31.50;90.70;;;;;;5034541;28;19929;-69
2022/06/20 10:03:32;;;;;;;;;;;32.00;90.00;;;;;;5034506;28;19971;-68
2022/06/20 10:06:03;;;;;;;;;;;32.50;89.20;;;;;;5034283;28;20015;-69
2022/06/20 10:08:35;;;;;;;;;;;32.10;88.70;;;;;;5034806;28;19951;-69
2022/06/20 10:11:07;;;;;;;;;;;31.90;89.20;;;;;;5034365;28;19925;-68
2022/06/20 10:13:39;;;;;;;;;;;32.60;88.30;;;;;;5034174;28;19925;-68
2022/06/20 10:16:10;;;;;;;;;;;33.50;86.30;;;;;;5034340;28;19925;-69
2022/06/20 10:18:41;;;;;;;;;;;31.10;89.20;;;;;;5034525;28;20282;-69
2022/06/20 10:21:13;;;;;;;;;;;31.10;89.40;;;;;;5034197;28;19925;-68
2022/06/20 10:23:55;;;;;;;;;;;30.00;91.00;;;;;;5034204;28;20404;-68
2022/06/20 10:26:37;;;;;;;;;;;30.10;91.10;;;;;;5033801;28;20382;-68
2022/06/20 10:29:11;;;;;;;;;;;29.20;92.00;;;;;;5021038;28;19924;-69
2022/06/20 10:31:41;;;;;;;;;;;31.20;90.60;;;;;;5033875;28;19928;-69
2022/06/20 10:34:13;;;;;;;;;;;30.90;90.20;;;;;;5033908;28;19931;-70
2022/06/20 10:36:45;;;;;;;;;;;31.40;89.90;;;;;;5033980;28;19932;-69
2022/06/20 10:39:14;;;;;;;;;;;30.60;90.20;;;;;;5034062;28;20000;-69
2022/06/20 10:41:46;;;;;;;;;;;30.10;91.10;;;;;;5033582;28;19933;-70
2022/06/20 10:44:18;;;;;;;;;;;29.90;91.30;;;;;;5033723;28;19925;-69
2022/06/20 10:46:48;;;;;;;;;;;29.70;91.60;;;;;;5033280;28;19929;-70
2022/06/20 10:49:28;;;;;;;;;;;30.60;90.80;;;;;;5033932;28;19932;-69
2022/06/20 10:52:02;;;;;;;;;;;31.10;90.30;;;;;;5033482;28;20026;-69
2022/06/20 10:54:34;;;;;;;;;;;31.10;90.20;;;;;;5033698;28;20362;-70
2022/06/20 10:57:07;;;;;;;;;;;29.50;91.10;;;;;;5033288;28;19924;-69
2022/06/20 10:59:40;;;;;;;;;;;28.10;93.30;;;;;;5033484;28;19929;-70
2022/06/20 11:02:15;;;;;;;;;;;28.00;92.90;;;;;;5033070;28;20374;-70
2022/06/20 11:04:53;;;;;;;;;;;28.00;93.10;;;;;;5033224;28;19937;-70
2022/06/20 11:07:24;;;;;;;;;;;27.80;93.30;;;;;;5033315;28;19925;-70
2022/06/20 11:09:59;;;;;;;;;;;27.40;93.40;;;;;;5033223;28;19925;-69
2022/06/20 11:12:40;;;;;;;;;;;26.40;94.60;;;;;;5033195;28;19925;-69
2022/06/20 11:15:12;;;;;;;;;;;26.50;94.70;;;;;;5033068;28;19925;-69
2022/06/20 11:17:43;;;;;;;;;;;26.40;94.90;;;;;;5033161;28;19929;-69
2022/06/20 11:20:20;;;;;;;;;;;26.70;95.10;;;;;;5033110;28;20470;-69
2022/06/20 11:22:51;;;;;;;;;;;26.10;95.40;;;;;;5032888;28;20400;-69
2022/06/20 11:25:21;;;;;;;;;;;26.20;95.90;;;;;;5032682;28;20399;-69
2022/06/20 11:28:04;;;;;;;;;;;26.00;95.90;;;;;;5033000;28;19933;-69
2022/06/20 11:30:34;;;;;;;;;;;26.40;95.80;;;;;;5032873;28;20361;-70
2022/06/20 11:33:09;;;;;;;;;;;26.30;96.10;;;;;;5032755;28;20304;-69
2022/06/20 11:35:43;;;;;;;;;;;25.80;96.10;;;;;;5032544;28;20381;-69
2022/06/20 11:38:18;;;;;;;;;;;25.80;96.40;;;;;;5032800;28;19983;-69
2022/06/20 11:40:50;;;;;;;;;;;25.20;96.90;;;;;;5032210;28;19986;-69
2022/06/20 11:43:34;;;;;;;;;;;24.40;97.90;;;;;;5032502;28;19925;-69
2022/06/20 11:46:09;;;;;;;;;;;23.60;98.80;;;;;;5032356;28;20309;-72
2022/06/20 11:48:41;;;;;;;;;;;23.90;98.80;;;;;;5033251;22;19929;-73
2022/06/20 11:51:14;;;;;;;;;;;23.90;98.90;;;;;;5015331;28;20389;-70
2022/06/20 11:53:47;;;;;;;;;;;23.50;99.20;;;;;;5017312;28;20301;-70
2022/06/20 11:56:17;;;;;;;;;;;23.60;99.20;;;;;;5015862;28;19972;-71
2022/06/20 11:58:57;;;;;;;;;;;23.30;99.60;;;;;;5017483;28;20032;-70
2022/06/20 12:01:27;;;;;;;;;;;23.10;99.90;;;;;;5017039;28;19933;-70
2022/06/20 12:03:57;;;;;;;;;;;22.90;99.90;;;;;;5013461;28;19975;-70
2022/06/20 12:06:27;;;;;;;;;;;22.50;99.90;;;;;;5012603;28;19972;-70
2022/06/20 12:08:56;;;;;;;;;;;22.80;99.90;;;;;;5012679;28;19948;-70
2022/06/20 12:11:50;;;;;;;;;;;22.40;99.90;;;;;;5013030;28;19984;-70
2022/06/20 12:14:24;;;;;;;;;;;22.10;99.90;;;;;;5012657;28;19980;-70
2022/06/20 12:16:56;;;;;;;;;;;22.20;99.90;;;;;;5012664;28;19925;-70
2022/06/20 12:25:00;;;;;;;;;;;23.20;99.90;;;;;;5018755;28;19948;-70
2022/06/20 12:27:27;;;;;;;;;;;23.50;99.90;;;;;;5013982;28;20405;-71
2022/06/20 12:29:54;;;;;;;;;;;23.80;99.90;;;;;;5012764;28;19979;-72
2022/06/20 12:32:30;;;;;;;;;;;23.50;99.90;;;;;;5012405;28;19987;-72
2022/06/20 12:34:58;;;;;;;;;;;23.90;99.90;;;;;;5011880;28;19929;-72
2022/06/20 12:37:30;;;;;;;;;;;24.40;99.80;;;;;;5012235;28;19979;-72
2022/06/20 12:39:59;;;;;;;;;;;24.80;99.30;;;;;;5012146;28;19929;-72
2022/06/20 12:42:31;;;;;;;;;;;24.60;99.40;;;;;;5012016;28;20324;-72
2022/06/20 12:45:03;;;;;;;;;;;24.80;99.40;;;;;;5011992;28;19929;-72
2022/06/20 12:47:47;;;;;;;;;;;25.10;99.10;;;;;;5012359;28;20309;-72
2022/06/20 12:50:19;;;;;;;;;;;25.20;98.60;;;;;;5011747;28;20381;-70
2022/06/20 12:52:51;;;;;;;;;;;25.10;98.40;;;;;;5013723;28;19930;-70
2022/06/20 12:55:24;;;;;;;;;;;24.50;99.10;;;;;;5015867;28;19925;-70
2022/06/20 12:57:59;;;;;;;;;;;24.40;99.00;;;;;;5015839;28;19925;-70
2022/06/20 13:00:32;;;;;;;;;;;24.30;99.10;;;;;;5015953;28;19932;-70
2022/06/20 13:03:17;;;;;;;;;;;24.50;98.80;;;;;;5015930;28;19926;-70
2022/06/20 13:05:50;;;;;;;;;;;24.10;98.70;;;;;;5015518;28;20385;-70
2022/06/20 13:08:24;;;;;;;;;;;23.30;99.40;;;;;;5015708;28;19988;-70
2022/06/20 13:10:57;;;;;;;;;;;22.90;99.90;;;;;;5016326;28;19929;-71
2022/06/20 13:13:45;;;;;;;;;;;22.70;99.90;;;;;;5015770;28;19929;-71
2022/06/20 13:16:16;;;;;;;;;;;22.50;99.90;;;;;;5015834;28;20116;-72
2022/06/20 13:18:53;;;;;;;;;;;22.40;99.90;;;;;;5015559;28;19933;-73
2022/06/20 13:21:26;;;;;;;;;;;22.40;99.90;;;;;;5015695;28;19980;-72
2022/06/20 13:24:01;;;;;;;;;;;22.30;99.90;;;;;;5015409;28;19929;-73
2022/06/20 13:26:33;;;;;;;;;;;22.30;99.90;;;;;;5015332;28;19932;-71
2022/06/20 13:29:07;;;;;;;;;;;22.10;99.90;;;;;;5015419;28;19925;-73
2022/06/20 13:31:36;;;;;;;;;;;22.80;99.90;;;;;;5015270;28;19949;-73
2022/06/20 13:34:06;;;;;;;;;;;22.90;99.40;;;;;;5015310;28;20393;-72
2022/06/20 13:36:41;;;;;;;;;;;22.50;99.70;;;;;;5015149;28;19929;-72
2022/06/20 13:39:14;;;;;;;;;;;22.40;99.60;;;;;;5015220;28;19929;-72
2022/06/20 13:41:42;;;;;;;;;;;22.40;99.60;;;;;;5014900;28;19929;-72
2022/06/20 13:44:18;;;;;;;;;;;22.10;99.60;;;;;;5015103;28;19930;-72
2022/06/20 13:46:48;;;;;;;;;;;22.10;99.80;;;;;;5014819;28;19926;-72
2022/06/20 13:49:17;;;;;;;;;;;22.80;99.10;;;;;;5015489;28;19925;-72
2022/06/20 13:51:47;;;;;;;;;;;23.40;98.60;;;;;;5014761;28;20389;-72
2022/06/20 13:54:19;;;;;;;;;;;23.20;98.20;;;;;;5014692;28;19926;-72
2022/06/20 13:56:52;;;;;;;;;;;22.90;98.40;;;;;;5014792;28;20336;-72
2022/06/20 13:59:21;;;;;;;;;;;22.90;98.10;;;;;;5015038;28;20397;-72
2022/06/20 14:02:00;;;;;;;;;;;22.70;98.60;;;;;;5014767;28;20301;-72
2022/06/20 14:04:28;;;;;;;;;;;22.40;98.80;;;;;;5014195;28;19925;-71
2022/06/20 14:06:57;;;;;;;;;;;22.60;98.70;;;;;;5014917;28;19929;-71
2022/06/20 14:09:27;;;;;;;;;;;22.60;98.10;;;;;;5014632;28;19925;-71
2022/06/20 14:11:55;;;;;;;;;;;22.40;98.10;;;;;;5014805;28;20008;-72
2022/06/20 14:14:25;;;;;;;;;;;22.10;98.10;;;;;;5014995;28;19926;-71
2022/06/20 14:16:53;;;;;;;;;;;22.00;97.80;;;;;;5014438;28;19929;-72
2022/06/20 14:19:21;;;;;;;;;;;22.00;97.60;;;;;;5014526;28;20325;-72
2022/06/20 14:21:49;;;;;;;;;;;22.00;97.70;;;;;;5014236;28;20408;-72
2022/06/20 14:24:18;;;;;;;;;;;22.20;97.20;;;;;;5014376;28;20291;-72
2022/06/20 14:26:47;;;;;;;;;;;22.60;96.60;;;;;;5014355;28;19925;-72
2022/06/20 14:29:17;;;;;;;;;;;22.40;97.00;;;;;;5014629;28;20360;-72
2022/06/20 14:31:51;;;;;;;;;;;22.50;96.60;;;;;;5014160;28;19925;-72
2022/06/20 14:34:22;;;;;;;;;;;22.30;96.50;;;;;;5014070;28;20382;-73
2022/06/20 14:36:52;;;;;;;;;;;22.10;96.80;;;;;;5013976;28;20004;-72
2022/06/20 14:39:20;;;;;;;;;;;22.20;96.80;;;;;;5014111;28;19940;-72
2022/06/20 14:41:54;;;;;;;;;;;22.10;96.90;;;;;;5013942;28;19980;-72
2022/06/20 14:44:25;;;;;;;;;;;22.20;96.60;;;;;;5013783;28;19930;-72
2022/06/20 14:46:59;;;;;;;;;;;21.90;96.90;;;;;;5013873;28;20404;-72
2022/06/20 14:49:29;;;;;;;;;;;21.30;97.30;;;;;;5014139;28;20353;-72
2022/06/20 14:51:58;;;;;;;;;;;21.10;97.70;;;;;;5014055;28;19925;-71
2022/06/20 14:54:28;;;;;;;;;;;21.10;97.60;;;;;;5014417;28;19930;-71